Time;durP1;ratioP1;P1;durP2;ratioP2;P2;SDS_P1;SDS_P2;PMS_P1;PMS_P2;Temp;Humidity;BMP_temperature;BMP_pressure;BME280_temperature;BME280_humidity;BME280_pressure;Samples;Min_cycle;Max_cycle;Signal;HPM_P1;HPM_P2
2020/12/23 00:00:01;;;;;;;36.17;29.73;;;;;;;5.70;100.00;98875.94;2032605;29;20697;-81
2020/12/23 00:01:02;;;;;;;34.50;29.20;;;;;;;5.85;100.00;98879.34;2032469;29;20249;-81
2020/12/23 00:02:12;;;;;;;30.88;27.67;;;;;;;5.82;100.00;98869.31;2031750;29;20263;-81
2020/12/23 00:03:13;;;;;;;34.42;28.63;;;;;;;5.71;100.00;98862.44;2032530;29;20340;-80
2020/12/23 00:04:14;;;;;;;38.00;31.40;;;;;;;5.82;100.00;98876.44;2033596;29;20325;-81
2020/12/23 00:05:15;;;;;;;35.58;29.65;;;;;;;5.89;100.00;98887.53;2033098;29;20223;-81
2020/12/23 00:06:16;;;;;;;32.63;29.05;;;;;;;5.98;100.00;98878.00;2033209;29;20326;-81
2020/12/23 00:07:17;;;;;;;34.50;29.17;;;;;;;5.94;100.00;98872.47;2032260;29;20307;-81
2020/12/23 00:08:18;;;;;;;36.43;29.47;;;;;;;6.03;100.00;98872.72;2032291;29;20231;-81
2020/12/23 00:09:20;;;;;;;39.45;30.33;;;;;;;6.01;100.00;98874.84;2032731;29;20621;-81
2020/12/23 00:10:21;;;;;;;36.95;29.63;;;;;;;6.01;100.00;98872.19;2032417;29;20231;-81
2020/12/23 00:11:22;;;;;;;35.63;29.45;;;;;;;6.01;100.00;98879.34;2032530;29;20636;-80
2020/12/23 00:12:23;;;;;;;33.57;28.67;;;;;;;6.05;100.00;98878.50;2032976;29;20382;-81
2020/12/23 00:13:24;;;;;;;33.70;28.88;;;;;;;6.13;100.00;98875.31;2032528;29;20314;-80
2020/12/23 00:14:25;;;;;;;36.50;29.00;;;;;;;6.14;100.00;98882.19;2033333;29;20238;-80
2020/12/23 00:15:26;;;;;;;35.47;29.45;;;;;;;6.16;100.00;98889.88;2033260;29;20291;-81
2020/12/23 00:16:27;;;;;;;36.97;29.33;;;;;;;6.15;100.00;98883.78;2033377;29;20286;-80
2020/12/23 00:17:28;;;;;;;34.67;29.80;;;;;;;6.16;100.00;98882.72;2032657;29;20318;-81
2020/12/23 00:18:29;;;;;;;35.03;29.43;;;;;;;6.13;100.00;98891.19;2033131;29;20231;-81
2020/12/23 00:19:30;;;;;;;37.78;29.13;;;;;;;6.13;100.00;98879.81;2032898;29;20234;-81
2020/12/23 00:20:32;;;;;;;34.22;29.00;;;;;;;6.00;100.00;98875.91;2025164;29;20647;-81
2020/12/23 00:21:33;;;;;;;31.55;28.05;;;;;;;6.02;100.00;98879.06;2032877;29;20227;-81
2020/12/23 00:22:34;;;;;;;36.67;28.90;;;;;;;6.00;100.00;98875.91;2032464;29;20247;-79
2020/12/23 00:23:35;;;;;;;35.13;29.13;;;;;;;6.08;100.00;98877.19;2032946;29;20230;-81
2020/12/23 00:24:37;;;;;;;32.63;27.63;;;;;;;6.12;100.00;98894.91;2033018;29;20231;-79
2020/12/23 00:25:38;;;;;;;35.55;29.50;;;;;;;6.17;100.00;98886.19;2032797;29;20239;-78
2020/12/23 00:26:39;;;;;;;39.33;30.97;;;;;;;6.27;100.00;98898.59;2033006;29;20227;-79
2020/12/23 00:27:40;;;;;;;34.55;28.52;;;;;;;6.19;100.00;98886.69;2032125;29;20227;-79
2020/12/23 00:28:42;;;;;;;35.77;28.23;;;;;;;6.23;100.00;98901.75;2024634;29;20238;-79
2020/12/23 00:29:42;;;;;;;34.83;29.15;;;;;;;6.27;100.00;98903.88;2024419;29;20231;-79
2020/12/23 00:30:44;;;;;;;32.67;27.40;;;;;;;6.28;100.00;98906.25;2024780;29;20235;-79
2020/12/23 00:31:44;;;;;;;31.15;26.80;;;;;;;6.23;100.00;98893.81;2032405;29;20231;-78
2020/12/23 00:32:46;;;;;;;32.13;26.57;;;;;;;6.31;100.00;98904.91;2033655;29;20219;-79
2020/12/23 00:33:46;;;;;;;31.30;26.77;;;;;;;6.32;100.00;98906.50;2033893;29;20253;-79
2020/12/23 00:34:48;;;;;;;29.07;25.67;;;;;;;6.36;100.00;98894.31;2033583;29;20227;-79
2020/12/23 00:35:48;;;;;;;28.95;25.27;;;;;;;6.32;100.00;98890.59;2032183;29;20227;-79
2020/12/23 00:36:53;;;;;;;29.70;26.33;;;;;;;6.33;100.00;98905.44;2031820;29;20231;-79
2020/12/23 00:37:55;;;;;;;30.00;26.90;;;;;;;6.32;100.00;98903.84;2024558;29;20698;-79
2020/12/23 00:38:55;;;;;;;29.88;26.15;;;;;;;6.37;100.00;98906.47;2032101;29;20235;-79
2020/12/23 00:39:58;;;;;;;30.57;27.10;;;;;;;6.34;100.00;98891.09;2032164;29;20251;-79
2020/12/23 00:40:58;;;;;;;29.50;26.30;;;;;;;6.32;100.00;98895.91;2032446;29;20234;-79
2020/12/23 00:42:00;;;;;;;30.30;25.83;;;;;;;6.35;100.00;98913.91;2032933;29;20223;-80
2020/12/23 00:43:00;;;;;;;30.98;26.40;;;;;;;6.35;100.00;98914.72;2033362;29;20220;-79
2020/12/23 00:44:02;;;;;;;31.73;25.97;;;;;;;6.43;100.00;98921.31;2033832;29;20286;-79
2020/12/23 00:45:03;;;;;;;32.97;26.27;;;;;;;6.39;100.00;98917.59;2032476;29;20761;-81
2020/12/23 00:46:05;;;;;;;31.65;26.25;;;;;;;6.47;100.00;98930.28;2032975;29;20294;-81
2020/12/23 00:47:06;;;;;;;30.00;25.88;;;;;;;6.39;100.00;98928.19;2032640;29;20243;-80
2020/12/23 00:48:07;;;;;;;30.30;25.20;;;;;;;6.54;100.00;98936.09;2031743;29;20819;-79
2020/12/23 00:49:08;;;;;;;30.02;26.05;;;;;;;6.49;100.00;98944.84;2025247;29;20707;-78
2020/12/23 00:50:10;;;;;;;28.23;25.10;;;;;;;6.49;100.00;98936.88;2032121;29;20310;-79
2020/12/23 00:51:11;;;;;;;27.55;24.50;;;;;;;6.54;100.00;98943.25;2033434;29;20243;-79
2020/12/23 00:52:13;;;;;;;29.23;25.42;;;;;;;6.60;100.00;98953.53;2032251;29;20267;-79
2020/12/23 00:53:13;;;;;;;28.13;24.42;;;;;;;6.55;100.00;98940.31;2032513;29;20226;-79
2020/12/23 00:54:15;;;;;;;29.63;24.87;;;;;;;6.57;100.00;98953.28;2025477;29;20235;-80
2020/12/23 00:55:17;;;;;;;28.98;25.95;;;;;;;6.57;100.00;98951.44;2024520;29;20235;-81
2020/12/23 00:56:19;;;;;;;33.25;27.92;;;;;;;6.58;100.00;98953.03;2032210;29;20246;-81
2020/12/23 00:57:20;;;;;;;33.80;28.05;;;;;;;6.55;100.00;98956.22;2032074;29;20598;-83
2020/12/23 00:58:21;;;;;;;32.87;29.27;;;;;;;6.59;100.00;98957.25;2031962;29;20342;-81
2020/12/23 00:59:22;;;;;;;33.13;29.42;;;;;;;6.59;100.00;98951.94;2031838;29;20585;-80
2020/12/23 01:00:23;;;;;;;36.53;28.77;;;;;;;6.57;100.00;98948.00;2031838;29;20227;-80
2020/12/23 01:01:24;;;;;;;35.40;28.25;;;;;;;6.55;100.00;98956.22;2032399;29;20279;-80
2020/12/23 01:02:25;;;;;;;35.23;28.77;;;;;;;6.54;100.00;98952.00;2031902;29;20698;-80
2020/12/23 01:03:26;;;;;;;38.38;30.15;;;;;;;6.65;100.00;98952.72;2032088;29;20223;-81
2020/12/23 01:04:28;;;;;;;40.23;31.10;;;;;;;6.66;100.00;98960.41;2031157;29;20306;-82
2020/12/23 01:05:29;;;;;;;36.30;30.70;;;;;;;6.67;100.00;98954.03;2031686;29;20235;-80
2020/12/23 01:06:30;;;;;;;38.70;31.07;;;;;;;6.59;100.00;98930.75;2031719;29;20321;-81
2020/12/23 01:07:31;;;;;;;36.65;32.67;;;;;;;6.65;100.00;98947.44;2031857;29;20227;-81
2020/12/23 01:08:32;;;;;;;38.23;32.67;;;;;;;6.60;100.00;98940.28;2032449;29;20224;-80
2020/12/23 01:09:33;;;;;;;39.83;33.33;;;;;;;6.68;100.00;98937.06;2032500;29;20679;-81
2020/12/23 01:10:35;;;;;;;39.25;33.72;;;;;;;6.65;100.00;98940.28;2032262;29;20227;-81
2020/12/23 01:11:36;;;;;;;42.55;37.20;;;;;;;6.63;100.00;98941.63;2027058;29;20235;-81
2020/12/23 01:12:37;;;;;;;46.08;36.70;;;;;;;6.62;100.00;98945.34;2036956;29;20238;-78
2020/12/23 01:13:38;;;;;;;45.40;38.50;;;;;;;6.56;100.00;98931.31;2036403;29;20242;-80
2020/12/23 01:14:39;;;;;;;44.85;36.40;;;;;;;6.64;100.00;98949.28;2036798;29;20242;-81
2020/12/23 01:15:40;;;;;;;47.33;38.07;;;;;;;6.64;100.00;98945.84;2032127;29;20232;-80
2020/12/23 01:16:41;;;;;;;47.47;38.55;;;;;;;6.62;100.00;98946.13;2031883;29;20323;-81
2020/12/23 01:17:42;;;;;;;43.47;37.30;;;;;;;6.60;100.00;98942.13;2031769;29;20232;-81
2020/12/23 01:18:43;;;;;;;53.53;40.58;;;;;;;6.47;100.00;98927.63;2032598;29;20230;-81
2020/12/23 01:19:44;;;;;;;50.77;39.33;;;;;;;6.55;100.00;98942.97;2033048;29;20675;-80
2020/12/23 01:20:45;;;;;;;49.90;40.03;;;;;;;6.61;100.00;98939.25;2032514;29;20291;-80
2020/12/23 01:21:46;;;;;;;52.97;40.40;;;;;;;6.62;100.00;98945.34;2032383;29;20278;-80
2020/12/23 01:22:47;;;;;;;53.47;42.15;;;;;;;6.56;100.00;98933.16;2025410;29;20232;-81
2020/12/23 01:23:48;;;;;;;54.83;43.83;;;;;;;6.61;100.00;98933.94;2024927;29;20237;-80
2020/12/23 01:24:49;;;;;;;50.58;41.63;;;;;;;6.61;100.00;98933.94;2032278;29;20231;-80
2020/12/23 01:25:52;;;;;;;52.23;42.80;;;;;;;6.56;100.00;98926.00;2032425;29;20300;-80
2020/12/23 01:26:52;;;;;;;56.65;43.05;;;;;;;6.61;100.00;98928.63;2031596;29;20262;-80
2020/12/23 01:27:54;;;;;;;52.53;40.93;;;;;;;6.47;100.00;98917.03;2025446;29;20243;-80
2020/12/23 01:28:54;;;;;;;54.15;41.10;;;;;;;6.59;100.00;98932.59;2035579;29;20633;-80
2020/12/23 01:29:55;;;;;;;51.00;40.57;;;;;;;6.53;100.00;98925.75;2035982;29;20255;-80
2020/12/23 01:30:56;;;;;;;51.08;39.97;;;;;;;6.55;100.00;98928.94;2036517;29;20231;-80
2020/12/23 01:31:57;;;;;;;50.43;40.57;;;;;;;6.59;100.00;98935.25;2034405;29;20231;-81
2020/12/23 01:32:58;;;;;;;51.15;40.42;;;;;;;6.59;100.00;98933.41;2035792;29;20228;-81
2020/12/23 01:33:59;;;;;;;48.73;40.43;;;;;;;6.53;100.00;98931.84;2033777;29;20274;-81
2020/12/23 01:35:00;;;;;;;47.95;40.03;;;;;;;6.46;100.00;98928.69;2033214;29;20227;-81
2020/12/23 01:36:01;;;;;;;54.13;40.47;;;;;;;6.52;100.00;98938.22;2033848;29;20223;-81
2020/12/23 01:37:02;;;;;;;51.80;41.35;;;;;;;6.43;100.00;98927.41;2033770;29;20682;-81
2020/12/23 01:38:04;;;;;;;48.90;40.90;;;;;;;6.51;100.00;98936.63;2033062;29;20729;-81
2020/12/23 01:39:04;;;;;;;52.13;41.53;;;;;;;6.45;100.00;98922.59;2033498;29;20219;-81
2020/12/23 01:40:06;;;;;;;50.40;39.07;;;;;;;6.47;100.00;98927.63;2033550;29;20243;-81
2020/12/23 01:41:07;;;;;;;47.10;38.67;;;;;;;6.51;100.00;98928.66;2033499;29;20698;-81
2020/12/23 01:42:08;;;;;;;50.97;39.05;;;;;;;6.53;100.00;98926.56;2033976;29;20227;-80
2020/12/23 01:43:09;;;;;;;48.75;40.63;;;;;;;6.52;100.00;98924.97;2033327;29;20745;-81
2020/12/23 01:44:10;;;;;;;50.57;41.40;;;;;;;6.46;100.00;98920.75;2032922;29;20590;-81
2020/12/23 01:45:11;;;;;;;51.92;41.38;;;;;;;6.42;100.00;98920.47;2033267;29;20230;-81
2020/12/23 01:46:12;;;;;;;55.10;42.17;;;;;;;6.48;100.00;98927.34;2024675;29;20259;-81
2020/12/23 01:47:20;;;;;;;51.03;42.03;;;;;;;6.50;100.00;98927.88;2032882;29;20642;-81
2020/12/23 01:48:22;;;;;;;55.15;42.78;;;;;;;6.43;100.00;98916.00;2033158;29;20226;-81
2020/12/23 01:49:23;;;;;;;54.60;41.72;;;;;;;6.46;100.00;98921.53;2031706;29;20223;-80
2020/12/23 01:50:25;;;;;;;51.83;41.97;;;;;;;6.43;100.00;98929.25;2025138;29;20235;-81
2020/12/23 01:51:25;;;;;;;54.25;40.80;;;;;;;6.36;100.00;98912.84;2032730;29;20241;-80
2020/12/23 01:52:29;;;;;;;51.07;39.63;;;;;;;6.44;100.00;98920.22;2033520;29;21973;-81
2020/12/23 01:53:30;;;;;;;54.25;40.85;;;;;;;6.39;100.00;98922.91;2033970;29;20234;-81
2020/12/23 01:54:31;;;;;;;52.07;40.83;;;;;;;6.50;100.00;98929.72;2033039;29;20247;-80
2020/12/23 01:55:32;;;;;;;50.25;39.50;;;;;;;6.43;100.00;98921.31;2033623;29;20227;-81
2020/12/23 01:56:35;;;;;;;49.43;39.63;;;;;;;6.51;100.00;98936.63;2033020;29;20291;-80
2020/12/23 01:57:36;;;;;;;50.08;40.28;;;;;;;6.48;100.00;98930.00;2024594;29;20231;-81
2020/12/23 01:58:37;;;;;;;48.57;40.33;;;;;;;6.49;100.00;98926.28;2031635;29;20254;-78
2020/12/23 01:59:38;;;;;;;47.05;38.00;;;;;;;6.40;100.00;98911.22;2032365;29;20223;-80
2020/12/23 02:00:40;;;;;;;50.75;40.10;;;;;;;6.49;100.00;98928.16;2023930;29;20255;-81
2020/12/23 02:01:45;;;;;;;54.17;41.53;;;;;;;6.53;100.00;98925.75;2031860;29;20231;-81
2020/12/23 02:02:48;;;;;;;51.30;37.92;;;;;;;6.51;100.00;98931.31;2032045;29;20686;-80
2020/12/23 02:03:49;;;;;;;48.30;38.25;;;;;;;6.50;100.00;98921.78;2032336;29;20287;-81
2020/12/23 02:04:51;;;;;;;44.95;36.47;;;;;;;6.54;100.00;98922.84;2033508;29;20231;-81
2020/12/23 02:05:52;;;;;;;48.95;37.30;;;;;;;6.56;100.00;98926.00;2032718;29;20282;-80
2020/12/23 02:06:53;;;;;;;49.00;36.43;;;;;;;6.66;100.00;98933.91;2033594;29;20231;-80
2020/12/23 02:07:54;;;;;;;43.63;35.65;;;;;;;6.65;100.00;98919.06;2033442;29;20236;-80
2020/12/23 02:08:56;;;;;;;45.77;36.63;;;;;;;6.62;100.00;98919.63;2032697;29;20239;-80
2020/12/23 02:09:58;;;;;;;43.47;34.28;;;;;;;6.68;100.00;98923.81;2033477;29;20228;-80
2020/12/23 02:10:59;;;;;;;45.03;35.33;;;;;;;6.74;100.00;98922.72;2031868;29;20231;-80
2020/12/23 02:12:01;;;;;;;46.40;37.33;;;;;;;6.69;100.00;98914.00;2031665;29;20243;-81
2020/12/23 02:13:02;;;;;;;45.15;37.00;;;;;;;6.75;100.00;98934.91;2032315;29;20568;-81
2020/12/23 02:14:03;;;;;;;46.40;36.90;;;;;;;6.71;100.00;98938.41;2032124;29;20270;-82
2020/12/23 02:15:09;;;;;;;49.27;38.00;;;;;;;6.78;100.00;98930.94;2032207;29;20231;-82
2020/12/23 02:16:09;;;;;;;48.65;37.05;;;;;;;6.77;100.00;98934.63;2025258;29;20235;-79
2020/12/23 02:17:11;;;;;;;43.93;35.47;;;;;;;6.72;100.00;98930.16;2026296;29;20228;-81
2020/12/23 02:18:11;;;;;;;51.20;36.55;;;;;;;6.73;100.00;98923.78;2026270;29;20296;-80
2020/12/23 02:19:13;;;;;;;44.97;34.03;;;;;;;6.77;100.00;98924.03;2026466;29;20267;-79
2020/12/23 02:20:15;;;;;;;45.67;34.72;;;;;;;6.87;100.00;98931.94;2034062;29;20234;-80
2020/12/23 02:21:17;;;;;;;42.60;35.53;;;;;;;6.79;100.00;98928.00;2034898;29;20302;-80
2020/12/23 02:22:19;;;;;;;49.05;36.30;;;;;;;6.75;100.00;98931.47;2033955;29;20223;-80
2020/12/23 02:23:21;;;;;;;43.85;34.47;;;;;;;6.75;100.00;98936.75;2026779;29;20230;-80
2020/12/23 02:24:22;;;;;;;42.80;35.70;;;;;;;6.73;100.00;98929.09;2034446;29;20255;-79
2020/12/23 02:25:23;;;;;;;47.77;37.00;;;;;;;6.72;100.00;98919.56;2035624;29;20235;-81
2020/12/23 02:26:24;;;;;;;47.08;37.17;;;;;;;6.76;100.00;98919.78;2035738;29;20754;-79
2020/12/23 02:27:25;;;;;;;47.53;36.63;;;;;;;6.74;100.00;98925.38;2036597;29;20231;-80
2020/12/23 02:28:26;;;;;;;43.78;36.00;;;;;;;6.59;100.00;98909.53;2037093;29;20246;-81
2020/12/23 02:29:27;;;;;;;47.30;36.87;;;;;;;6.69;100.00;98928.06;2038938;29;20239;-80
2020/12/23 02:30:28;;;;;;;49.05;38.67;;;;;;;6.61;100.00;98912.72;2038350;29;20590;-80
2020/12/23 02:31:29;;;;;;;45.33;34.57;;;;;;;6.56;100.00;98912.75;2036706;29;20293;-80
2020/12/23 02:32:30;;;;;;;40.38;32.78;;;;;;;6.67;100.00;98924.09;2038081;29;20293;-82
2020/12/23 02:33:31;;;;;;;41.33;34.03;;;;;;;6.63;100.00;98923.84;2036896;29;20235;-80
2020/12/23 02:34:32;;;;;;;44.42;33.83;;;;;;;6.70;100.00;98927.00;2038190;29;20710;-80
2020/12/23 02:35:33;;;;;;;45.53;34.90;;;;;;;6.68;100.00;98928.31;2037390;29;20648;-80
2020/12/23 02:36:34;;;;;;;42.72;34.00;;;;;;;6.83;100.00;98932.75;2034132;29;20224;-80
2020/12/23 02:37:35;;;;;;;40.83;34.77;;;;;;;6.77;100.00;98929.31;2034678;29;20230;-80
2020/12/23 02:38:36;;;;;;;44.03;35.25;;;;;;;6.77;100.00;98938.06;2033975;29;20228;-80
2020/12/23 02:39:39;;;;;;;43.88;34.40;;;;;;;6.79;100.00;98941.25;2033927;29;20252;-79
2020/12/23 02:40:40;;;;;;;43.13;35.75;;;;;;;6.61;100.00;98902.13;2027172;29;20835;-79
2020/12/23 02:41:41;;;;;;;45.63;36.20;;;;;;;6.83;100.00;98930.88;2026144;29;20647;-80
2020/12/23 02:42:41;;;;;;;49.13;37.15;;;;;;;6.78;100.00;98936.25;2027662;29;20609;-80
2020/12/23 02:43:43;;;;;;;43.53;34.80;;;;;;;6.82;100.00;98933.81;2026672;29;20330;-80
2020/12/23 02:44:44;;;;;;;46.45;36.17;;;;;;;6.74;100.00;98930.69;2026250;29;20601;-80
2020/12/23 02:45:45;;;;;;;47.87;35.63;;;;;;;6.89;100.00;98943.06;2034479;29;20235;-80
2020/12/23 02:46:51;;;;;;;44.95;35.20;;;;;;;6.92;100.00;98950.47;2042188;29;20258;-80
2020/12/23 02:47:52;;;;;;;46.75;35.58;;;;;;;6.87;100.00;98942.56;2036826;29;20231;-77
2020/12/23 02:48:53;;;;;;;44.95;34.58;;;;;;;6.87;100.00;98936.47;2035649;29;20235;-80
2020/12/23 02:49:54;;;;;;;44.40;34.97;;;;;;;6.90;100.00;98939.34;2036520;29;20314;-80
2020/12/23 02:50:55;;;;;;;45.35;35.80;;;;;;;6.92;100.00;98937.19;2035817;29;20593;-80
2020/12/23 02:51:56;;;;;;;44.43;35.03;;;;;;;6.80;100.00;98934.88;2034542;29;20254;-80
2020/12/23 02:52:57;;;;;;;39.58;31.83;;;;;;;6.79;100.00;98929.88;2038226;29;20239;-80
2020/12/23 02:53:59;;;;;;;40.10;32.63;;;;;;;6.80;100.00;98932.25;2037151;29;20237;-80
2020/12/23 02:54:59;;;;;;;40.88;33.63;;;;;;;6.80;100.00;98923.50;2035582;29;20228;-80
2020/12/23 02:56:02;;;;;;;43.83;34.63;;;;;;;6.69;100.00;98921.94;2038899;29;20250;-80
2020/12/23 02:57:04;;;;;;;37.38;32.75;;;;;;;6.73;100.00;98926.44;2030315;29;20303;-80
2020/12/23 02:58:05;;;;;;;45.05;36.15;;;;;;;6.60;100.00;98908.47;2040362;29;20207;-81
2020/12/23 02:59:05;;;;;;;44.22;33.75;;;;;;;6.64;100.00;98916.69;2039158;29;20223;-80
2020/12/23 03:00:07;;;;;;;49.03;35.07;;;;;;;6.67;100.00;98929.38;2037041;29;20227;-80
2020/12/23 03:01:08;;;;;;;42.92;34.33;;;;;;;6.66;100.00;98931.25;2040099;29;20227;-79
2020/12/23 03:02:09;;;;;;;43.07;33.00;;;;;;;6.67;100.00;98929.38;2037833;29;20283;-80
2020/12/23 03:03:10;;;;;;;43.28;33.85;;;;;;;6.62;100.00;98918.81;2041083;29;20306;-80
2020/12/23 03:04:11;;;;;;;38.67;33.13;;;;;;;6.67;100.00;98921.44;2041319;29;20250;-79
2020/12/23 03:05:12;;;;;;;44.80;34.65;;;;;;;6.62;100.00;98903.72;2038290;29;20239;-80
2020/12/23 03:06:13;;;;;;;44.80;34.10;;;;;;;6.55;100.00;98908.50;2040655;29;20231;-80
2020/12/23 03:07:13;;;;;;;43.90;35.85;;;;;;;6.60;100.00;98915.63;2037641;29;20572;-79
2020/12/23 03:08:15;;;;;;;45.80;33.70;;;;;;;6.59;100.00;98917.50;2031331;29;20250;-79
2020/12/23 03:09:16;;;;;;;43.58;34.33;;;;;;;6.56;100.00;98923.34;2031913;29;20259;-80
2020/12/23 03:10:17;;;;;;;41.97;34.88;;;;;;;6.60;100.00;98916.41;2030692;29;20249;-79
2020/12/23 03:11:18;;;;;;;46.50;34.65;;;;;;;6.51;100.00;98902.97;2040849;29;20223;-79
2020/12/23 03:12:20;;;;;;;47.33;33.97;;;;;;;6.54;100.00;98914.88;2040143;29;20251;-80
2020/12/23 03:13:20;;;;;;;45.90;36.22;;;;;;;6.56;100.00;98910.09;2039263;29;20231;-80
2020/12/23 03:14:22;;;;;;;40.33;30.13;;;;;;;6.56;100.00;98920.69;2039942;29;20231;-80
2020/12/23 03:15:22;;;;;;;43.35;33.15;;;;;;;6.59;100.00;98914.84;2030713;29;20235;-78
2020/12/23 03:16:24;;;;;;;45.80;35.17;;;;;;;6.47;100.00;98907.22;2038941;29;20223;-79
2020/12/23 03:17:25;;;;;;;41.50;33.80;;;;;;;6.61;100.00;98925.19;2036118;29;20287;-80
2020/12/23 03:18:26;;;;;;;43.73;34.87;;;;;;;6.54;100.00;98917.53;2036366;29;20236;-79
2020/12/23 03:19:26;;;;;;;39.47;32.22;;;;;;;6.55;100.00;98920.97;2036495;29;20231;-79
2020/12/23 03:20:28;;;;;;;40.93;32.90;;;;;;;6.58;100.00;98931.81;2036544;29;20228;-79
2020/12/23 03:21:28;;;;;;;40.05;31.58;;;;;;;6.67;100.00;98932.03;2036177;29;20235;-79
2020/12/23 03:22:30;;;;;;;44.77;33.37;;;;;;;6.66;100.00;98927.81;2035441;29;20238;-79
2020/12/23 03:23:30;;;;;;;39.88;32.53;;;;;;;6.61;100.00;98918.03;2035097;29;20234;-79
2020/12/23 03:24:32;;;;;;;40.30;31.13;;;;;;;6.56;100.00;98920.69;2028177;29;20239;-79
2020/12/23 03:25:33;;;;;;;39.78;31.63;;;;;;;6.52;100.00;98903.78;2027884;29;20228;-79
2020/12/23 03:26:34;;;;;;;40.83;32.30;;;;;;;6.57;100.00;98921.50;2030194;29;20235;-79
2020/12/23 03:27:35;;;;;;;39.53;30.50;;;;;;;6.59;100.00;98925.44;2038008;29;20281;-79
2020/12/23 03:28:37;;;;;;;41.50;31.85;;;;;;;6.59;100.00;98920.16;2036943;29;20291;-79
2020/12/23 03:29:38;;;;;;;40.83;33.28;;;;;;;6.60;100.00;98927.03;2039367;29;20230;-79
2020/12/23 03:30:38;;;;;;;37.60;30.73;;;;;;;6.58;100.00;98917.78;2037613;29;20709;-79
2020/12/23 03:31:40;;;;;;;39.37;32.23;;;;;;;6.48;100.00;98900.06;2037136;29;20639;-79
2020/12/23 03:32:41;;;;;;;38.63;30.77;;;;;;;6.57;100.00;98914.31;2038397;29;20235;-79
2020/12/23 03:33:42;;;;;;;35.40;29.97;;;;;;;6.56;100.00;98918.03;2037388;29;20298;-79
2020/12/23 03:34:43;;;;;;;43.13;32.83;;;;;;;6.53;100.00;98926.56;2039641;29;20251;-79
2020/12/23 03:35:44;;;;;;;42.60;30.73;;;;;;;6.57;100.00;98932.09;2039030;29;20243;-79
2020/12/23 03:36:44;;;;;;;36.75;31.85;;;;;;;6.58;100.00;98929.16;2038305;29;20248;-80
2020/12/23 03:37:46;;;;;;;38.87;31.33;;;;;;;6.58;100.00;98934.47;2040013;29;20251;-80
2020/12/23 03:38:46;;;;;;;36.42;30.58;;;;;;;6.55;100.00;98927.06;2039221;29;21439;-80
2020/12/23 03:39:48;;;;;;;38.23;30.30;;;;;;;6.56;100.00;98918.03;2039867;29;20262;-81
2020/12/23 03:40:49;;;;;;;34.92;29.70;;;;;;;6.53;100.00;98928.41;2039456;29;20313;-80
2020/12/23 03:41:51;;;;;;;36.13;29.83;;;;;;;6.55;100.00;98929.72;2039289;29;20239;-80
2020/12/23 03:42:51;;;;;;;42.25;30.63;;;;;;;6.54;100.00;98937.94;2039107;29;20238;-79
2020/12/23 03:43:53;;;;;;;36.43;29.80;;;;;;;6.64;100.00;98945.84;2038974;29;20265;-79
2020/12/23 03:44:53;;;;;;;37.67;30.92;;;;;;;6.62;100.00;98951.44;2037900;29;20666;-79
2020/12/23 03:45:54;;;;;;;41.67;31.77;;;;;;;6.61;100.00;98954.34;2030756;29;20264;-79
2020/12/23 03:46:55;;;;;;;35.13;31.40;;;;;;;6.62;100.00;98947.97;2038087;29;20239;-79
2020/12/23 03:47:57;;;;;;;39.67;32.17;;;;;;;6.63;100.00;98945.06;2038973;29;20231;-79
2020/12/23 03:48:58;;;;;;;40.63;31.77;;;;;;;6.59;100.00;98937.91;2038831;29;20230;-79
2020/12/23 03:49:59;;;;;;;42.10;31.60;;;;;;;6.62;100.00;98935.53;2037296;29;20261;-79
2020/12/23 03:51:00;;;;;;;38.53;30.83;;;;;;;6.65;100.00;98937.63;2037896;29;20704;-80
2020/12/23 03:52:01;;;;;;;38.78;30.63;;;;;;;6.69;100.00;98938.66;2037352;29;20242;-80
2020/12/23 03:53:02;;;;;;;38.93;30.93;;;;;;;6.67;100.00;98924.09;2038299;29;20243;-81
2020/12/23 03:54:03;;;;;;;43.53;31.23;;;;;;;6.64;100.00;98930.72;2038504;29;20235;-79
2020/12/23 03:55:05;;;;;;;42.93;31.97;;;;;;;6.56;100.00;98915.41;2036845;29;20231;-80
2020/12/23 03:56:06;;;;;;;39.70;31.15;;;;;;;6.58;100.00;98907.97;2038652;29;20219;-79
2020/12/23 03:57:07;;;;;;;41.47;31.20;;;;;;;6.63;100.00;98912.47;2034745;29;20224;-78
2020/12/23 03:58:08;;;;;;;39.88;31.38;;;;;;;6.55;100.00;98903.22;2036109;29;20231;-79
2020/12/23 03:59:09;;;;;;;45.47;32.20;;;;;;;6.60;100.00;98900.53;2034948;29;20251;-79
2020/12/23 04:00:11;;;;;;;40.72;31.92;;;;;;;6.65;100.00;98908.47;2034033;29;20259;-79
2020/12/23 04:01:15;;;;;;;41.75;32.70;;;;;;;6.52;100.00;98890.53;2034741;29;20678;-79
2020/12/23 04:02:15;;;;;;;38.85;32.22;;;;;;;6.57;100.00;98903.72;2034335;29;20228;-79
2020/12/23 04:03:17;;;;;;;39.17;32.40;;;;;;;6.60;100.00;98915.63;2036126;29;20231;-79
2020/12/23 04:04:18;;;;;;;41.45;32.58;;;;;;;6.60;100.00;98919.06;2037372;29;20231;-80
2020/12/23 04:05:19;;;;;;;41.30;33.03;;;;;;;6.59;100.00;98914.84;2037071;29;20367;-80
2020/12/23 04:06:19;;;;;;;41.97;32.97;;;;;;;6.59;100.00;98917.50;2037037;29;20235;-80
2020/12/23 04:07:21;;;;;;;40.40;31.87;;;;;;;6.62;100.00;98922.28;2036747;29;20251;-79
2020/12/23 04:08:21;;;;;;;42.08;31.35;;;;;;;6.60;100.00;98915.63;2036008;29;20694;-78
2020/12/23 04:09:22;;;;;;;37.67;31.43;;;;;;;6.61;100.00;98917.25;2037408;29;20648;-79
2020/12/23 04:10:24;;;;;;;38.63;32.00;;;;;;;6.55;100.00;98908.50;2036079;29;20227;-79
2020/12/23 04:11:25;;;;;;;45.90;34.03;;;;;;;6.63;100.00;98929.16;2037232;29;20219;-80
2020/12/23 04:12:26;;;;;;;40.47;32.30;;;;;;;6.58;100.00;98909.81;2036400;29;20243;-80
2020/12/23 04:13:28;;;;;;;41.28;30.80;;;;;;;6.66;100.00;98938.41;2035491;29;20251;-80
2020/12/23 04:14:28;;;;;;;41.30;31.33;;;;;;;6.61;100.00;98927.84;2036673;29;20235;-80
2020/12/23 04:15:30;;;;;;;41.50;32.03;;;;;;;6.67;100.00;98932.81;2035615;29;20351;-80
2020/12/23 04:16:30;;;;;;;41.55;31.35;;;;;;;6.73;100.00;98941.56;2036822;29;20227;-81
2020/12/23 04:17:31;;;;;;;39.57;32.03;;;;;;;6.70;100.00;98931.50;2038741;29;20232;-80
2020/12/23 04:18:32;;;;;;;40.80;30.50;;;;;;;6.69;100.00;98937.84;2037520;29;20219;-80
2020/12/23 04:19:33;;;;;;;43.10;30.73;;;;;;;6.68;100.00;98934.41;2037992;29;20223;-80
2020/12/23 04:20:34;;;;;;;39.63;30.88;;;;;;;6.64;100.00;98943.97;2037216;29;20290;-80
2020/12/23 04:21:35;;;;;;;37.67;31.50;;;;;;;6.64;100.00;98937.91;2037079;29;20273;-80
2020/12/23 04:22:36;;;;;;;37.60;31.40;;;;;;;6.55;100.00;98924.41;2037987;29;20271;-80
2020/12/23 04:23:37;;;;;;;35.57;30.03;;;;;;;6.56;100.00;98922.56;2035632;29;20709;-79
2020/12/23 04:24:38;;;;;;;35.05;31.30;;;;;;;6.61;100.00;98931.28;2028875;29;20232;-79
2020/12/23 04:25:40;;;;;;;37.17;30.50;;;;;;;6.55;100.00;98921.78;2029056;29;20236;-80
2020/12/23 04:26:41;;;;;;;42.25;30.90;;;;;;;6.61;100.00;98933.16;2028244;29;20227;-80
2020/12/23 04:27:42;;;;;;;40.37;32.20;;;;;;;6.58;100.00;98923.84;2029455;29;20319;-79
2020/12/23 04:28:43;;;;;;;40.83;32.53;;;;;;;6.58;100.00;98923.06;2027495;29;20231;-80
2020/12/23 04:29:44;;;;;;;36.40;30.07;;;;;;;6.59;100.00;98929.94;2037031;29;20234;-80
2020/12/23 04:30:47;;;;;;;39.33;30.13;;;;;;;6.60;100.00;98923.59;2035774;29;20223;-80
2020/12/23 04:31:48;;;;;;;38.97;30.75;;;;;;;6.53;100.00;98915.16;2027396;29;20283;-80
2020/12/23 04:32:49;;;;;;;35.70;29.60;;;;;;;6.57;100.00;98932.88;2028515;29;20295;-80
2020/12/23 04:33:50;;;;;;;38.20;31.17;;;;;;;6.58;100.00;98926.50;2034305;29;20310;-80
2020/12/23 04:34:51;;;;;;;34.05;29.45;;;;;;;6.58;100.00;98915.13;2035021;29;20223;-80
2020/12/23 04:35:52;;;;;;;37.63;29.20;;;;;;;6.63;100.00;98921.19;2034782;29;20314;-78
2020/12/23 04:36:53;;;;;;;35.90;29.60;;;;;;;6.55;100.00;98911.16;2034885;29;20243;-80
2020/12/23 04:37:54;;;;;;;35.78;29.95;;;;;;;6.59;100.00;98930.75;2036154;29;20235;-80
2020/12/23 04:38:55;;;;;;;34.83;30.23;;;;;;;6.54;100.00;98922.84;2027085;29;20236;-80
2020/12/23 04:39:56;;;;;;;33.75;29.23;;;;;;;6.59;100.00;98933.41;2027320;29;20291;-80
2020/12/23 04:40:59;;;;;;;34.63;29.43;;;;;;;6.63;100.00;98936.31;2027663;29;20236;-80